createdAt,value
2023-09-09T00:02:24.949Z,14.73
2023-09-09T00:04:55.726Z,14.02
2023-09-09T00:07:23.301Z,13.73
2023-09-09T00:09:50.671Z,15.18
2023-09-09T00:12:18.344Z,13.75
2023-09-09T00:14:45.434Z,14.50
2023-09-09T00:17:12.360Z,14.07
2023-09-09T00:19:39.228Z,14.00
2023-09-09T00:22:06.114Z,13.73
2023-09-09T00:24:32.950Z,14.57
2023-09-09T00:27:02.638Z,14.75
2023-09-09T00:29:30.670Z,14.55
2023-09-09T00:31:57.698Z,15.52
2023-09-09T00:34:24.444Z,15.23
2023-09-09T00:36:54.354Z,14.32
2023-09-09T00:39:21.285Z,15.13
2023-09-09T00:41:49.075Z,16.23
2023-09-09T00:44:16.081Z,14.27
2023-09-09T00:46:45.766Z,15.05
2023-09-09T00:49:13.387Z,15.00
2023-09-09T00:51:40.398Z,14.20
2023-09-09T00:54:09.957Z,16.70
2023-09-09T00:56:37.059Z,24.38
2023-09-09T00:59:05.304Z,26.80
2023-09-09T01:01:36.098Z,26.80
2023-09-09T01:04:08.652Z,29.90
2023-09-09T01:06:36.436Z,21.90
2023-09-09T01:09:08.265Z,23.67
2023-09-09T01:11:35.094Z,22.20
2023-09-09T01:14:04.037Z,20.48
2023-09-09T01:16:31.915Z,20.08
2023-09-09T01:18:58.756Z,19.15
2023-09-09T01:21:29.715Z,17.40
2023-09-09T01:23:56.436Z,15.50
2023-09-09T01:26:23.308Z,16.40
2023-09-09T01:28:52.627Z,14.95
2023-09-09T01:31:20.152Z,15.75
2023-09-09T01:33:47.494Z,15.50
2023-09-09T01:36:15.501Z,13.75
2023-09-09T01:38:42.280Z,13.80
2023-09-09T01:41:09.114Z,14.73
2023-09-09T01:43:36.130Z,15.50
2023-09-09T01:46:05.088Z,15.32
2023-09-09T01:48:32.308Z,14.43
2023-09-09T01:51:00.107Z,16.23
2023-09-09T01:53:29.625Z,14.45
2023-09-09T01:55:59.500Z,15.23
2023-09-09T01:58:26.483Z,14.40
2023-09-09T02:00:53.386Z,14.32
2023-09-09T02:03:20.721Z,14.35
2023-09-09T02:05:47.667Z,14.60
2023-09-09T02:08:14.732Z,14.88
2023-09-09T02:10:42.816Z,14.70
2023-09-09T02:13:20.652Z,14.52
2023-09-09T02:15:48.274Z,15.43
2023-09-09T02:18:15.210Z,14.80
2023-09-09T02:20:44.344Z,15.10
2023-09-09T02:23:11.754Z,14.93
2023-09-09T02:25:38.794Z,14.52
2023-09-09T02:28:05.956Z,14.40
2023-09-09T02:30:32.943Z,13.57
2023-09-09T02:33:02.685Z,14.18
2023-09-09T02:35:30.129Z,14.52
2023-09-09T02:38:03.288Z,14.55
2023-09-09T02:40:30.230Z,14.45
2023-09-09T02:42:57.403Z,15.52
2023-09-09T02:45:28.230Z,14.80
2023-09-09T02:47:55.394Z,14.60
2023-09-09T02:50:24.588Z,15.27
2023-09-09T02:52:52.990Z,14.00
2023-09-09T02:55:27.919Z,14.55
2023-09-09T02:57:54.948Z,14.68
2023-09-09T03:00:22.337Z,15.25
2023-09-09T03:02:54.154Z,15.10
2023-09-09T03:05:22.531Z,14.35
2023-09-09T03:07:50.942Z,14.20
2023-09-09T03:10:17.827Z,14.95
2023-09-09T03:12:44.553Z,15.00
2023-09-09T03:15:11.417Z,13.88
2023-09-09T03:17:38.288Z,14.13
2023-09-09T03:20:06.785Z,14.98
2023-09-09T03:22:33.837Z,14.60
2023-09-09T03:25:00.788Z,15.13
2023-09-09T03:27:27.563Z,14.23
2023-09-09T03:30:00.376Z,14.85
2023-09-09T03:32:27.346Z,14.38
2023-09-09T03:34:54.394Z,14.48
2023-09-09T03:37:23.093Z,15.30
2023-09-09T03:39:53.171Z,15.50
2023-09-09T03:42:19.813Z,15.95
2023-09-09T03:44:47.043Z,14.90
2023-09-09T03:47:14.095Z,15.32
2023-09-09T03:49:43.543Z,15.10
2023-09-09T03:52:11.236Z,15.23
2023-09-09T03:54:39.630Z,14.60
2023-09-09T03:57:06.552Z,14.90
2023-09-09T03:59:34.478Z,15.10
2023-09-09T04:02:01.650Z,15.18
2023-09-09T04:04:34.533Z,14.88
2023-09-09T04:07:01.326Z,14.65
2023-09-09T04:09:32.991Z,15.52
2023-09-09T04:11:59.699Z,14.90
2023-09-09T04:14:26.611Z,15.77
2023-09-09T04:16:53.550Z,15.13
2023-09-09T04:19:20.519Z,16.52
2023-09-09T04:21:55.478Z,16.20
2023-09-09T04:24:22.566Z,15.15
2023-09-09T04:26:50.107Z,16.13
2023-09-09T04:29:16.961Z,15.18
2023-09-09T04:31:46.802Z,15.13
2023-09-09T04:34:14.136Z,15.00
2023-09-09T04:36:42.591Z,16.55
2023-09-09T04:39:09.542Z,15.95
2023-09-09T04:41:36.995Z,15.95
2023-09-09T04:44:04.993Z,15.18
2023-09-09T04:46:32.114Z,16.20
2023-09-09T04:48:59.044Z,17.77
2023-09-09T04:51:34.099Z,17.02
2023-09-09T04:54:05.075Z,15.07
2023-09-09T04:56:31.939Z,14.82
2023-09-09T04:58:58.831Z,14.70
2023-09-09T05:01:25.831Z,14.50
2023-09-09T05:03:52.619Z,16.13
2023-09-09T05:06:19.316Z,15.90
2023-09-09T05:08:47.498Z,16.55
2023-09-09T05:11:14.430Z,15.60
2023-09-09T05:13:44.181Z,16.55
2023-09-09T05:16:11.025Z,17.10
2023-09-09T05:18:37.843Z,16.95
2023-09-09T05:21:04.649Z,16.08
2023-09-09T05:23:48.397Z,16.88
2023-09-09T05:26:19.421Z,16.35
2023-09-09T05:28:46.144Z,15.82
2023-09-09T05:31:14.188Z,16.75
2023-09-09T05:33:41.193Z,18.23
2023-09-09T05:36:08.606Z,18.85
2023-09-09T05:38:50.513Z,16.30
2023-09-09T05:41:25.292Z,16.60
2023-09-09T05:43:52.270Z,17.45
2023-09-09T05:46:19.965Z,17.17
2023-09-09T05:48:47.488Z,17.42
2023-09-09T05:51:28.504Z,16.23
2023-09-09T05:54:03.393Z,17.02
2023-09-09T05:56:30.467Z,16.85
2023-09-09T05:58:57.340Z,16.05
2023-09-09T06:01:24.173Z,17.02
2023-09-09T06:03:58.904Z,17.08
2023-09-09T06:06:26.318Z,16.83
2023-09-09T06:08:53.155Z,16.02
2023-09-09T06:11:24.505Z,15.85
2023-09-09T06:13:52.954Z,16.88
2023-09-09T06:16:20.481Z,17.55
2023-09-09T06:18:51.519Z,16.83
2023-09-09T06:21:18.596Z,16.60
2023-09-09T06:23:45.542Z,17.27
2023-09-09T06:26:12.394Z,15.23
2023-09-09T06:28:39.475Z,17.05
2023-09-09T06:31:06.398Z,17.02
2023-09-09T06:33:33.257Z,16.83
2023-09-09T06:36:00.063Z,18.10
2023-09-09T06:38:27.091Z,16.83
2023-09-09T06:40:54.249Z,16.48
2023-09-09T06:43:21.888Z,16.73
2023-09-09T06:45:49.809Z,16.80
2023-09-09T06:48:21.286Z,14.77
2023-09-09T06:53:19.747Z,18.80
2023-09-09T06:55:47.977Z,17.38
2023-09-09T06:58:21.064Z,17.15
2023-09-09T07:00:55.064Z,17.20
2023-09-09T07:03:22.465Z,18.13
2023-09-09T07:05:49.891Z,16.23
2023-09-09T07:08:20.640Z,16.70
2023-09-09T07:10:52.417Z,17.20
2023-09-09T07:13:20.888Z,14.00
2023-09-09T07:15:48.192Z,18.08
2023-09-09T07:18:15.510Z,15.15
2023-09-09T07:20:43.442Z,15.93
2023-09-09T07:23:16.719Z,15.82
2023-09-09T07:25:48.555Z,15.25
2023-09-09T07:28:18.727Z,16.42
2023-09-09T07:30:50.067Z,16.30
2023-09-09T07:33:18.688Z,16.42
2023-09-09T07:35:49.311Z,16.02
2023-09-09T07:38:17.116Z,14.50
2023-09-09T07:40:44.150Z,15.80
2023-09-09T07:43:11.151Z,15.38
2023-09-09T07:45:51.479Z,16.17
2023-09-09T07:48:20.220Z,16.17
2023-09-09T07:50:54.788Z,16.08
2023-09-09T07:53:22.607Z,15.18
2023-09-09T07:55:50.699Z,16.05
2023-09-09T07:58:19.183Z,16.42
2023-09-09T08:00:48.330Z,17.38
2023-09-09T08:03:17.248Z,15.90
2023-09-09T08:05:44.568Z,14.52
2023-09-09T08:08:11.780Z,15.25
2023-09-09T08:10:38.619Z,16.15
2023-09-09T08:13:06.079Z,14.63
2023-09-09T08:18:02.892Z,16.20
2023-09-09T08:20:31.917Z,17.00
2023-09-09T08:22:58.763Z,12.95
2023-09-09T08:25:26.444Z,15.02
2023-09-09T08:27:54.596Z,14.05
2023-09-09T08:30:21.502Z,14.38
2023-09-09T08:32:48.299Z,14.43
2023-09-09T08:35:15.235Z,16.58
2023-09-09T08:37:42.379Z,16.48
2023-09-09T08:40:10.291Z,15.70
2023-09-09T08:42:44.291Z,17.52
2023-09-09T08:45:30.444Z,14.05
2023-09-09T08:48:00.137Z,15.07
2023-09-09T08:50:30.796Z,15.63
2023-09-09T08:53:03.113Z,14.05
2023-09-09T08:55:33.114Z,16.38
2023-09-09T08:58:01.367Z,13.77
2023-09-09T09:00:36.116Z,13.85
2023-09-09T09:03:03.707Z,14.45
2023-09-09T09:05:35.102Z,13.02
2023-09-09T09:10:31.949Z,13.20
2023-09-09T09:13:03.526Z,14.10
2023-09-09T09:15:34.263Z,13.10
2023-09-09T09:18:01.340Z,14.18
2023-09-09T09:20:33.337Z,14.93
2023-09-09T09:23:05.431Z,12.27
2023-09-09T09:25:47.133Z,13.52
2023-09-09T09:28:22.877Z,14.65
2023-09-09T09:30:51.236Z,12.48
2023-09-09T09:33:24.995Z,13.70
2023-09-09T09:35:51.915Z,12.60
2023-09-09T09:38:19.411Z,14.18
2023-09-09T09:40:46.558Z,12.18
2023-09-09T09:43:20.981Z,13.27
2023-09-09T09:45:48.362Z,12.88
2023-09-09T09:48:28.893Z,13.10
2023-09-09T09:50:56.171Z,12.73
2023-09-09T09:53:23.909Z,12.48
2023-09-09T09:55:52.130Z,12.18
2023-09-09T09:58:23.025Z,12.32
2023-09-09T10:00:53.239Z,12.93
2023-09-09T10:03:32.068Z,11.40
2023-09-09T10:05:59.152Z,12.95
2023-09-09T10:08:37.537Z,12.82
2023-09-09T10:11:08.780Z,12.30
2023-09-09T10:16:14.285Z,12.32
2023-09-09T10:18:42.726Z,11.93
2023-09-09T10:21:10.797Z,13.00
2023-09-09T10:23:39.734Z,13.15
2023-09-09T10:26:09.157Z,11.32
2023-09-09T10:28:37.647Z,11.50
2023-09-09T10:31:06.757Z,12.18
2023-09-09T10:33:34.175Z,13.40
2023-09-09T10:36:01.517Z,12.65
2023-09-09T10:38:31.398Z,12.68
2023-09-09T10:40:59.164Z,11.50
2023-09-09T10:43:26.109Z,11.82
2023-09-09T10:45:55.883Z,12.32
2023-09-09T10:48:25.202Z,12.88
2023-09-09T10:50:56.314Z,11.02
2023-09-09T10:55:55.073Z,11.48
2023-09-09T10:58:35.048Z,12.30
2023-09-09T11:01:02.502Z,12.48
2023-09-09T11:03:38.003Z,12.57
2023-09-09T11:06:19.568Z,12.15
2023-09-09T11:08:48.110Z,12.25
2023-09-09T11:11:19.504Z,11.27
2023-09-09T11:14:06.369Z,11.65
2023-09-09T11:16:40.644Z,12.23
2023-09-09T11:19:09.054Z,11.32
2023-09-09T11:21:44.671Z,11.18
2023-09-09T11:24:11.887Z,10.85
2023-09-09T11:26:40.352Z,12.02
2023-09-09T11:29:14.548Z,11.27
2023-09-09T11:31:44.702Z,12.38
2023-09-09T11:34:16.142Z,11.43
2023-09-09T11:36:47.552Z,10.75
2023-09-09T11:39:14.551Z,11.65
2023-09-09T11:41:41.509Z,11.00
2023-09-09T11:44:10.042Z,11.90
2023-09-09T11:46:39.838Z,11.38
2023-09-09T11:49:11.820Z,10.95
2023-09-09T11:51:39.161Z,10.93
2023-09-09T11:54:10.196Z,11.57
2023-09-09T11:59:11.623Z,11.07
2023-09-09T12:01:46.294Z,10.30
2023-09-09T12:04:15.158Z,11.38
2023-09-09T12:06:47.687Z,10.75
2023-09-09T12:09:15.638Z,11.20
2023-09-09T12:11:44.159Z,12.85
2023-09-09T12:14:15.923Z,10.13
2023-09-09T12:16:46.502Z,11.43
2023-09-09T12:19:19.105Z,10.65
2023-09-09T12:21:47.948Z,10.68
2023-09-09T12:24:18.465Z,10.77
2023-09-09T12:26:52.695Z,11.25
2023-09-09T12:29:24.342Z,10.75
2023-09-09T12:31:57.468Z,10.23
2023-09-09T12:34:27.510Z,10.40
2023-09-09T12:36:59.538Z,10.25
2023-09-09T12:39:28.720Z,11.13
2023-09-09T12:41:59.133Z,11.00
2023-09-09T12:44:26.135Z,11.30
2023-09-09T12:46:54.245Z,10.07
2023-09-09T12:49:21.658Z,10.23
2023-09-09T12:51:55.920Z,10.98
2023-09-09T12:54:23.000Z,10.13
2023-09-09T12:56:50.496Z,10.05
2023-09-09T12:59:19.954Z,11.43
2023-09-09T13:01:50.297Z,10.40
2023-09-09T13:04:17.187Z,10.65
2023-09-09T13:06:44.136Z,9.57
2023-09-09T13:09:10.914Z,10.55
2023-09-09T13:11:41.056Z,10.52
2023-09-09T13:16:43.278Z,11.60
2023-09-09T13:19:10.330Z,10.15
2023-09-09T13:21:37.362Z,11.45
2023-09-09T13:24:05.814Z,9.88
2023-09-09T13:26:32.741Z,9.77
2023-09-09T13:28:59.658Z,9.93
2023-09-09T13:31:26.568Z,10.23
2023-09-09T13:33:53.467Z,9.60
2023-09-09T13:36:23.980Z,10.63
2023-09-09T13:38:50.914Z,11.93
2023-09-09T13:41:19.294Z,11.48
2023-09-09T13:43:46.434Z,11.73
2023-09-09T13:46:20.127Z,10.93
2023-09-09T13:48:46.882Z,14.07
2023-09-09T13:51:24.172Z,10.93
2023-09-09T13:53:59.038Z,11.85
2023-09-09T13:56:31.206Z,10.93
2023-09-09T13:58:59.018Z,10.27
2023-09-09T14:01:26.455Z,10.35
2023-09-09T14:04:02.464Z,11.10
2023-09-09T14:06:29.458Z,10.27
2023-09-09T14:08:56.241Z,10.60
2023-09-09T14:11:23.099Z,10.15
2023-09-09T14:13:49.858Z,10.82
2023-09-09T14:16:16.633Z,11.20
2023-09-09T14:18:45.770Z,10.77
2023-09-09T14:21:12.936Z,10.20
2023-09-09T14:23:42.177Z,11.43
2023-09-09T14:26:11.090Z,10.68
2023-09-09T14:28:38.488Z,10.48
2023-09-09T14:31:05.997Z,10.40
2023-09-09T14:33:33.892Z,9.95
2023-09-09T14:36:00.705Z,9.88
2023-09-09T14:38:27.799Z,10.40
2023-09-09T14:40:55.331Z,10.43
2023-09-09T14:43:23.319Z,11.07
2023-09-09T14:45:50.452Z,10.93
2023-09-09T14:48:17.145Z,10.15
2023-09-09T14:50:44.808Z,9.25
2023-09-09T14:53:12.059Z,10.70
2023-09-09T14:55:39.042Z,9.63
2023-09-09T14:58:06.012Z,10.75
2023-09-09T15:00:32.861Z,11.07
2023-09-09T15:02:59.752Z,10.27
2023-09-09T15:05:26.575Z,10.93
2023-09-09T15:07:53.749Z,10.90
2023-09-09T15:10:20.724Z,10.45
2023-09-09T15:12:56.344Z,11.23
2023-09-09T15:15:24.717Z,10.48
2023-09-09T15:17:51.525Z,10.63
2023-09-09T15:20:18.332Z,10.77
2023-09-09T15:22:45.065Z,10.80
2023-09-09T15:25:11.946Z,10.20
2023-09-09T15:27:38.679Z,9.80
2023-09-09T15:30:14.618Z,9.40
2023-09-09T15:32:46.077Z,10.38
2023-09-09T15:35:13.682Z,11.20
2023-09-09T15:37:40.459Z,9.63
2023-09-09T15:40:08.997Z,10.15
2023-09-09T15:42:44.629Z,10.30
2023-09-09T15:45:12.866Z,10.38
2023-09-09T15:47:40.808Z,9.85
2023-09-09T15:50:16.644Z,10.68
2023-09-09T15:52:44.835Z,10.35
2023-09-09T15:55:13.051Z,10.15
2023-09-09T15:57:43.916Z,11.75
2023-09-09T16:00:13.030Z,10.48
2023-09-09T16:02:39.882Z,9.73
2023-09-09T16:05:10.946Z,10.20
2023-09-09T16:07:39.265Z,10.35
2023-09-09T16:10:07.063Z,9.73
2023-09-09T16:12:34.002Z,10.45
2023-09-09T16:15:06.908Z,10.25
2023-09-09T16:17:43.821Z,9.90
2023-09-09T16:20:19.715Z,9.32
2023-09-09T16:22:46.499Z,11.05
2023-09-09T16:25:13.391Z,9.90
2023-09-09T16:27:47.093Z,10.25
2023-09-09T16:30:21.659Z,10.50
2023-09-09T16:32:58.283Z,9.07
2023-09-09T16:35:30.048Z,9.13
2023-09-09T16:37:57.754Z,10.48
2023-09-09T16:40:30.903Z,10.80
2023-09-09T16:43:05.284Z,10.63
2023-09-09T16:45:32.503Z,10.38
2023-09-09T16:47:59.454Z,11.00
2023-09-09T16:50:32.564Z,10.20
2023-09-09T16:52:59.346Z,10.93
2023-09-09T16:55:26.869Z,9.25
2023-09-09T16:57:59.375Z,10.73
2023-09-09T17:03:09.302Z,10.65
2023-09-09T17:05:43.989Z,10.40
2023-09-09T17:08:15.628Z,10.32
2023-09-09T17:10:46.143Z,10.45
2023-09-09T17:13:12.963Z,10.18
2023-09-09T17:15:42.137Z,10.38
2023-09-09T17:18:10.019Z,10.55
2023-09-09T17:20:37.125Z,10.77
2023-09-09T17:23:04.509Z,10.38
2023-09-09T17:25:31.516Z,10.68
2023-09-09T17:28:07.427Z,10.27
2023-09-09T17:30:34.721Z,9.93
2023-09-09T17:33:02.109Z,10.30
2023-09-09T17:35:30.142Z,10.02
2023-09-09T17:38:04.851Z,9.98
2023-09-09T17:40:39.845Z,9.95
2023-09-09T17:43:06.577Z,9.68
2023-09-09T17:45:33.500Z,11.20
2023-09-09T17:48:00.648Z,9.52
2023-09-09T17:50:27.658Z,10.02
2023-09-09T17:52:59.561Z,10.55
2023-09-09T17:55:26.573Z,10.88
2023-09-09T17:57:53.298Z,11.25
2023-09-09T18:00:20.123Z,9.77
2023-09-09T18:02:48.900Z,10.63
2023-09-09T18:05:16.685Z,10.43
2023-09-09T18:07:44.083Z,11.23
2023-09-09T18:10:11.094Z,10.00
2023-09-09T18:12:41.639Z,10.18
2023-09-09T18:15:09.030Z,10.65
2023-09-09T18:17:36.156Z,11.52
2023-09-09T18:20:05.393Z,10.77
2023-09-09T18:22:32.303Z,10.50
2023-09-09T18:24:59.040Z,11.02
2023-09-09T18:27:29.003Z,11.40
2023-09-09T18:29:55.851Z,11.77
2023-09-09T18:32:22.770Z,11.88
2023-09-09T18:34:58.093Z,11.48
2023-09-09T18:37:25.671Z,10.45
2023-09-09T18:39:52.580Z,10.82
2023-09-09T18:42:19.416Z,11.63
2023-09-09T18:44:46.251Z,11.07
2023-09-09T18:47:14.303Z,11.57
2023-09-09T18:49:41.147Z,12.98
2023-09-09T18:52:21.083Z,13.70
2023-09-09T18:54:47.867Z,14.70
2023-09-09T18:57:15.891Z,14.15
2023-09-09T18:59:42.766Z,12.88
2023-09-09T19:02:09.790Z,14.77
2023-09-09T19:04:36.817Z,14.75
2023-09-09T19:07:03.956Z,12.68
2023-09-09T19:09:31.002Z,12.27
2023-09-09T19:11:57.943Z,13.35
2023-09-09T19:14:24.871Z,10.60
2023-09-09T19:16:51.601Z,13.43
2023-09-09T19:19:18.541Z,13.52
2023-09-09T19:21:53.246Z,13.23
2023-09-09T19:24:21.683Z,14.02
2023-09-09T19:26:48.591Z,13.73
2023-09-09T19:29:15.707Z,14.07
2023-09-09T19:31:42.695Z,15.15
2023-09-09T19:34:09.758Z,12.35
2023-09-09T19:36:43.973Z,12.05
2023-09-09T19:39:11.439Z,13.02
2023-09-09T19:41:38.991Z,13.30
2023-09-09T19:44:12.875Z,13.35
2023-09-09T19:46:39.817Z,15.60
2023-09-09T19:49:08.619Z,13.98
2023-09-09T19:51:43.684Z,14.80
2023-09-09T19:54:14.817Z,13.63
2023-09-09T19:56:42.382Z,13.90
2023-09-09T19:59:10.589Z,15.00
2023-09-09T20:01:38.288Z,14.85
2023-09-09T20:04:05.422Z,14.07
2023-09-09T20:06:32.494Z,15.15
2023-09-09T20:08:59.517Z,15.18
2023-09-09T20:11:26.893Z,14.57
2023-09-09T20:13:56.511Z,17.15
2023-09-09T20:16:23.397Z,16.50
2023-09-09T20:18:55.108Z,16.67
2023-09-09T20:21:22.055Z,16.88
2023-09-09T20:23:48.768Z,16.58
2023-09-09T20:26:15.689Z,17.50
2023-09-09T20:28:42.876Z,17.17
2023-09-09T20:31:09.992Z,17.65
2023-09-09T20:33:36.798Z,17.73
2023-09-09T20:36:05.373Z,16.38
2023-09-09T20:38:32.325Z,16.98
2023-09-09T20:41:03.153Z,17.33
2023-09-09T20:43:30.149Z,16.63
2023-09-09T20:46:07.569Z,16.60
2023-09-09T20:48:34.385Z,16.05
2023-09-09T20:51:04.480Z,15.50
2023-09-09T20:53:37.110Z,15.55
2023-09-09T20:56:13.745Z,14.80
2023-09-09T20:58:41.987Z,15.82
2023-09-09T21:01:09.693Z,15.13
2023-09-09T21:03:38.788Z,14.30
2023-09-09T21:06:10.104Z,14.82
2023-09-09T21:08:41.081Z,14.35
2023-09-09T21:11:09.120Z,14.18
2023-09-09T21:13:36.060Z,14.55
2023-09-09T21:16:03.118Z,14.65
2023-09-09T21:18:36.772Z,15.77
2023-09-09T21:21:04.154Z,14.68
2023-09-09T21:23:31.097Z,14.88
2023-09-09T21:25:59.347Z,15.35
2023-09-09T21:28:34.673Z,13.35
2023-09-09T21:31:01.748Z,13.15
2023-09-09T21:33:28.679Z,14.50
2023-09-09T21:35:57.053Z,14.65
2023-09-09T21:38:26.972Z,14.15
2023-09-09T21:40:53.716Z,14.68
2023-09-09T21:43:20.916Z,15.52
2023-09-09T21:45:48.205Z,14.02
2023-09-09T21:48:15.278Z,14.13
2023-09-09T21:50:42.818Z,14.57
2023-09-09T21:53:09.719Z,13.75
2023-09-09T21:55:42.920Z,15.85
2023-09-09T21:58:12.120Z,14.73
2023-09-09T22:00:40.520Z,16.23
2023-09-09T22:03:07.611Z,15.15
2023-09-09T22:05:34.608Z,14.55
2023-09-09T22:08:10.322Z,15.15
2023-09-09T22:10:37.659Z,15.43
2023-09-09T22:13:05.137Z,14.77
2023-09-09T22:15:36.605Z,15.02
2023-09-09T22:18:06.876Z,16.35
2023-09-09T22:20:36.443Z,14.68
2023-09-09T22:23:04.533Z,14.18
2023-09-09T22:25:35.933Z,14.35
2023-09-09T22:30:32.044Z,16.08
2023-09-09T22:32:58.888Z,15.25
2023-09-09T22:35:27.289Z,15.57
2023-09-09T22:38:02.124Z,15.88
2023-09-09T22:40:37.593Z,15.68
2023-09-09T22:43:06.088Z,15.32
2023-09-09T22:45:46.951Z,15.32
2023-09-09T22:48:14.098Z,15.43
2023-09-09T22:50:41.029Z,14.98
2023-09-09T22:53:08.627Z,13.75
2023-09-09T22:55:37.239Z,14.68
2023-09-09T22:58:09.202Z,14.77
2023-09-09T23:00:36.147Z,14.98
2023-09-09T23:03:03.120Z,15.70
2023-09-09T23:05:32.858Z,14.45
2023-09-09T23:08:03.726Z,14.73
2023-09-09T23:10:32.352Z,15.30
2023-09-09T23:12:59.012Z,15.38
2023-09-09T23:15:26.133Z,13.65
2023-09-09T23:17:52.979Z,13.63
2023-09-09T23:20:28.521Z,12.85
2023-09-09T23:23:02.329Z,13.52
2023-09-09T23:25:29.565Z,12.70
2023-09-09T23:27:56.589Z,13.20
2023-09-09T23:30:28.763Z,12.63
2023-09-09T23:32:55.894Z,13.65
2023-09-09T23:35:26.338Z,11.73
2023-09-09T23:37:53.721Z,11.75
2023-09-09T23:40:29.282Z,11.95
2023-09-09T23:42:57.401Z,12.35
2023-09-09T23:45:24.836Z,12.82
2023-09-09T23:48:03.363Z,12.57
2023-09-09T23:50:40.576Z,13.02
2023-09-09T23:53:07.388Z,12.18
2023-09-09T23:55:42.121Z,12.15
2023-09-09T23:58:10.228Z,12.10
